Airfield :
LOGIN :

Register | Disclaimer

   EN    FR    IT 

 










Legend :    VFR   Marginal VFR   IFR   Intensive IFR   Very Intensive IFR
Visi :
Ceiling :
>= 8 km
>= 3000ft
5 to 8 km
1000 to 3000 ft
1500m to 5 km
500 to 1000 ft
800 to 1500m
200 to 500 ft
< 800m
< 200 ft
Symbols :   Thunderstorms  Fog  Heavy snow  Heavy precipitations  Wind > 20 kt
SIGMETs :     Misc.  Thunderstorms  Icing  Turbulence  Mountain Waves  Volcanic Ashes







- Airport Elevation : 286 ft
- IATA code : TRF


ENTO - Sandefjord , Torp

CURRENT METAR :
  • 181720Z 18013KT CAVOK 16/15 Q1002

EXPIRED METARs :
  • 181650Z 19014KT CAVOK 17/14 Q1003
  • 181620Z 18015KT CAVOK 17/14 Q1003
  • 181550Z 18015KT CAVOK 17/14 Q1003
  • 181520Z 18015KT CAVOK 17/14 Q1004
  • 181450Z 17015KT CAVOK 18/14 Q1004

TAF ENTO
Valid from the 18 at 18:00 until the 19 at 18:00 UTC


1818/1918 20015KT 9999 SCT020
BECMG 1818/1820 BKN012
TEMPO 1819/1823 22020G30KT 2500 -RADZ BR OVC004
BECMG 1823/1901 FEW020
TEMPO 1909/1913 BKN010 FEW025CB
TEMPO 1909/1916 21018G28KT
BECMG 1916/1918 20030G45KT BKN012
No reported NOTAMs for that airfield.
1 SIGMET reported for the Norway FIR (ENOR) :
 
Severe icing
ENSV SIGMET B03 VALID 181740/182000 ENVV
ENOR NORWAY FIR SEV ICE OBS AT 1658Z WI N6200 E00530 - N6200 E00730 - N6000 E00730 - N6000 E00530 - N6200 E00530 FL130/190 STNR NC=



MET'MAP, your aeronautical weather chart ! - Copyright ORBIFLY December 2007 - Disclaimer

ORBIFLY MET'MAP TEAM :

Programming & Development : Alexandra Zaïnal
Concept & Development : Baudouin d'Aumeries
Co-Development & Prog : Marc-Olivier Méhu
Technical & hardware support : Manuel Goepfert

Contact : metmap@orbifly.com




SOURCES & CREDITS :

   NOAA